Time;durP1;ratioP1;P1;durP2;ratioP2;P2;SDS_P1;SDS_P2;PMS_P1;PMS_P2;Temp;Humidity;BMP_temperature;BMP_pressure;BME280_temperature;BME280_humidity;BME280_pressure;Samples;Min_cycle;Max_cycle;Signal;HPM_P1;HPM_P2
2023/09/03 00:01:19;;;;;;;12.37;11.37;;;19.30;99.90;;;;;;5074070;28;20534;-86
2023/09/03 00:03:49;;;;;;;11.77;10.77;;;19.30;99.90;;;;;;5069563;28;20498;-88
2023/09/03 00:06:20;;;;;;;12.90;11.67;;;19.40;99.90;;;;;;5093222;28;20512;-84
2023/09/03 00:08:56;;;;;;;10.97;9.97;;;19.40;99.90;;;;;;5074094;28;20521;-84
2023/09/03 00:11:28;;;;;;;11.50;10.57;;;19.40;99.90;;;;;;5091342;27;20547;-84
2023/09/03 00:16:37;;;;;;;11.53;10.63;;;19.40;99.90;;;;;;5099855;22;20466;-83
2023/09/03 00:19:13;;;;;;;10.80;9.90;;;19.40;99.90;;;;;;5055811;28;20843;-85
2023/09/03 00:22:06;;;;;;;10.07;9.27;;;19.40;99.90;;;;;;5030921;28;20566;-84
2023/09/03 00:24:56;;;;;;;12.10;11.00;;;19.40;99.90;;;;;;5059947;22;20513;-85
2023/09/03 00:27:32;;;;;;;10.47;9.50;;;19.40;99.90;;;;;;5031299;28;20471;-89
2023/09/03 00:30:09;;;;;;;9.80;9.00;;;19.40;99.90;;;;;;5054260;28;20467;-88
2023/09/03 00:32:36;;;;;;;10.40;9.37;;;19.40;99.90;;;;;;5041807;28;20809;-87
2023/09/03 00:35:14;;;;;;;10.17;9.37;;;19.40;99.90;;;;;;5052567;28;21011;-84
2023/09/03 00:40:38;;;;;;;9.07;8.27;;;19.40;99.90;;;;;;5050963;28;20459;-83
2023/09/03 00:43:04;;;;;;;9.80;8.90;;;19.40;99.90;;;;;;5054034;28;20540;-84
2023/09/03 00:45:32;;;;;;;10.23;9.33;;;19.40;99.90;;;;;;5055425;28;20494;-89
2023/09/03 00:47:59;;;;;;;9.67;8.87;;;19.40;99.90;;;;;;5044605;28;20495;-87
2023/09/03 00:50:26;;;;;;;9.50;8.70;;;19.50;99.90;;;;;;5053290;28;20502;-84
2023/09/03 00:52:58;;;;;;;9.70;8.80;;;19.50;99.90;;;;;;5052805;28;20462;-87
2023/09/03 00:55:25;;;;;;;10.20;9.40;;;19.50;99.90;;;;;;5053878;28;20471;-85
2023/09/03 00:57:55;;;;;;;9.30;8.43;;;19.50;99.90;;;;;;5052676;28;20475;-88
2023/09/03 01:00:22;;;;;;;10.83;9.93;;;19.50;99.90;;;;;;5053971;28;20486;-88
2023/09/03 01:02:50;;;;;;;9.13;8.50;;;19.50;99.90;;;;;;5053745;28;20965;-85
2023/09/03 01:05:19;;;;;;;9.70;8.80;;;19.50;99.90;;;;;;5054466;28;20501;-89
2023/09/03 01:07:50;;;;;;;8.70;8.00;;;19.50;99.90;;;;;;5055121;28;20471;-85
2023/09/03 01:10:20;;;;;;;9.03;8.33;;;19.50;99.90;;;;;;5046090;28;20471;-85
2023/09/03 01:12:53;;;;;;;9.40;8.60;;;19.50;99.90;;;;;;5053698;28;20850;-84
2023/09/03 01:15:27;;;;;;;9.70;9.00;;;19.50;99.90;;;;;;5059304;28;20472;-88
2023/09/03 01:18:09;;;;;;;8.77;7.97;;;19.50;99.90;;;;;;5060692;28;20883;-86
2023/09/03 01:20:40;;;;;;;9.37;8.57;;;19.50;99.90;;;;;;5058910;28;20479;-83
2023/09/03 01:23:41;;;;;;;9.77;9.00;;;19.50;99.90;;;;;;5057609;28;20516;-85
2023/09/03 01:26:33;;;;;;;9.10;8.40;;;19.50;99.90;;;;;;4977420;28;20533;-85
2023/09/03 01:29:18;;;;;;;10.70;9.67;;;19.50;99.90;;;;;;4965636;28;20877;-87
2023/09/03 01:31:46;;;;;;;11.60;10.50;;;19.50;99.90;;;;;;5055228;28;20553;-85
2023/09/03 01:34:17;;;;;;;11.53;10.60;;;19.50;99.90;;;;;;5068607;28;20467;-87
2023/09/03 01:36:51;;;;;;;9.50;8.60;;;19.50;99.90;;;;;;5074051;28;20486;-88
2023/09/03 01:39:20;;;;;;;10.33;9.50;;;19.50;99.90;;;;;;5064568;28;20463;-85
2023/09/03 01:41:48;;;;;;;9.70;8.80;;;19.50;99.90;;;;;;5060694;28;20558;-82
2023/09/03 01:44:17;;;;;;;9.23;8.37;;;19.50;99.90;;;;;;5060740;28;20471;-88
2023/09/03 01:46:50;;;;;;;9.43;8.77;;;19.50;99.90;;;;;;5064669;28;20463;-88
2023/09/03 01:49:30;;;;;;;10.47;9.57;;;19.50;99.90;;;;;;5068619;28;20809;-88
2023/09/03 01:52:06;;;;;;;9.07;8.37;;;19.50;99.90;;;;;;5058082;28;20536;-88
2023/09/03 01:54:48;;;;;;;9.80;9.00;;;19.40;99.90;;;;;;5059019;28;20485;-88
2023/09/03 01:57:25;;;;;;;9.70;8.90;;;19.40;99.90;;;;;;5059796;28;20473;-84
2023/09/03 02:00:01;;;;;;;10.37;9.37;;;19.40;99.90;;;;;;5057607;28;20451;-84
2023/09/03 02:02:34;;;;;;;9.43;8.73;;;19.40;99.90;;;;;;5035705;28;20462;-84
2023/09/03 02:05:04;;;;;;;9.83;9.13;;;19.30;99.90;;;;;;5056733;28;20479;-85
2023/09/03 02:07:39;;;;;;;9.63;8.93;;;19.30;99.90;;;;;;5056580;28;20810;-85
2023/09/03 02:10:07;;;;;;;9.90;9.17;;;19.30;99.90;;;;;;5046321;28;20502;-89
2023/09/03 02:12:37;;;;;;;11.13;10.17;;;19.30;99.90;;;;;;5056395;28;20556;-88
2023/09/03 02:15:07;;;;;;;11.30;10.40;;;19.30;99.90;;;;;;5055612;28;20489;-85
2023/09/03 02:17:34;;;;;;;10.73;9.83;;;19.20;99.90;;;;;;5055630;28;20471;-89
2023/09/03 02:20:01;;;;;;;12.10;10.73;;;19.20;99.90;;;;;;5055417;28;20471;-87
2023/09/03 02:22:28;;;;;;;11.17;10.03;;;19.20;99.90;;;;;;5056195;28;20509;-84
2023/09/03 02:24:55;;;;;;;11.37;10.37;;;19.20;99.90;;;;;;5055375;28;20558;-84
2023/09/03 02:27:22;;;;;;;10.60;9.60;;;19.10;99.90;;;;;;5056472;28;20475;-84
2023/09/03 02:29:52;;;;;;;23.70;21.60;;;19.10;99.90;;;;;;5055823;28;20521;-87
2023/09/03 02:32:22;;;;;;;16.90;15.50;;;19.10;99.90;;;;;;5055919;28;20475;-87
2023/09/03 02:34:51;;;;;;;14.40;13.20;;;19.10;99.90;;;;;;5054349;28;20475;-87
2023/09/03 02:37:18;;;;;;;13.60;12.50;;;19.10;99.90;;;;;;5055266;28;20463;-84
2023/09/03 02:39:45;;;;;;;12.10;10.93;;;19.00;99.90;;;;;;5055709;28;20471;-88
2023/09/03 02:42:12;;;;;;;13.07;11.97;;;19.00;99.90;;;;;;5055172;28;20459;-84
2023/09/03 02:44:39;;;;;;;10.70;9.80;;;19.00;99.90;;;;;;5055468;28;20853;-84
2023/09/03 02:47:08;;;;;;;10.13;9.33;;;19.00;99.90;;;;;;5054797;28;20467;-88
2023/09/03 02:49:41;;;;;;;12.17;10.80;;;19.00;99.90;;;;;;5056255;28;20837;-89
2023/09/03 02:52:08;;;;;;;12.00;11.10;;;19.00;99.90;;;;;;5054921;28;20471;-85
2023/09/03 02:54:35;;;;;;;10.53;9.83;;;18.90;99.90;;;;;;5055804;28;20475;-85
2023/09/03 02:57:02;;;;;;;11.40;10.30;;;18.90;99.90;;;;;;5055892;28;20467;-83
2023/09/03 02:59:32;;;;;;;10.83;9.87;;;18.90;99.90;;;;;;5046514;28;20793;-84
2023/09/03 03:01:59;;;;;;;11.20;10.30;;;18.90;99.90;;;;;;5054515;28;20482;-85
2023/09/03 03:04:26;;;;;;;10.70;9.80;;;18.80;99.90;;;;;;5055695;28;20475;-84
2023/09/03 03:06:55;;;;;;;10.27;9.47;;;18.80;99.90;;;;;;5055153;28;20467;-84
2023/09/03 03:09:24;;;;;;;10.93;10.07;;;18.80;99.90;;;;;;5054401;28;20534;-87
2023/09/03 03:11:54;;;;;;;11.67;10.63;;;18.80;99.90;;;;;;5054572;28;20482;-88
2023/09/03 03:14:21;;;;;;;10.90;10.00;;;18.80;99.90;;;;;;5054716;28;20472;-84
2023/09/03 03:16:48;;;;;;;10.47;9.57;;;18.80;99.90;;;;;;5054167;28;20479;-89
2023/09/03 03:19:15;;;;;;;10.47;9.57;;;18.70;99.90;;;;;;5042645;28;20487;-84
2023/09/03 03:21:42;;;;;;;9.97;9.17;;;18.70;99.90;;;;;;5054242;28;20463;-87
2023/09/03 03:24:13;;;;;;;9.87;8.87;;;18.70;99.90;;;;;;5054636;28;20553;-89
2023/09/03 03:26:45;;;;;;;10.80;10.00;;;18.70;99.90;;;;;;5054663;28;20477;-83
2023/09/03 03:29:15;;;;;;;11.30;10.30;;;18.70;99.90;;;;;;5053945;28;20463;-87
2023/09/03 03:31:43;;;;;;;10.47;9.67;;;18.70;99.90;;;;;;5054545;28;20459;-87
2023/09/03 03:34:13;;;;;;;12.17;11.10;;;18.70;99.90;;;;;;5053777;28;20864;-84
2023/09/03 03:36:40;;;;;;;11.57;10.60;;;18.70;99.90;;;;;;5054173;28;20466;-86
2023/09/03 03:39:07;;;;;;;11.90;10.90;;;18.70;99.90;;;;;;5053236;28;20517;-84
2023/09/03 03:41:38;;;;;;;11.50;10.40;;;18.60;99.90;;;;;;5054424;28;20858;-85
2023/09/03 03:44:08;;;;;;;11.20;10.20;;;18.60;99.90;;;;;;5043514;28;20479;-85
2023/09/03 03:46:39;;;;;;;11.47;10.37;;;18.60;99.90;;;;;;5052845;28;20544;-84
2023/09/03 03:49:06;;;;;;;11.53;10.73;;;18.60;99.90;;;;;;5054231;28;20973;-88
2023/09/03 03:51:35;;;;;;;10.10;9.17;;;18.60;99.90;;;;;;5041613;28;20562;-88
2023/09/03 03:54:04;;;;;;;11.20;10.17;;;18.60;99.90;;;;;;5054636;28;20490;-88
2023/09/03 03:56:31;;;;;;;10.43;9.63;;;18.60;99.90;;;;;;5054441;28;20464;-83
2023/09/03 03:59:00;;;;;;;11.83;10.80;;;18.60;99.90;;;;;;5047610;28;20468;-87
2023/09/03 04:01:29;;;;;;;11.93;10.67;;;18.60;99.90;;;;;;5044198;28;20851;-86
2023/09/03 04:03:57;;;;;;;10.60;9.70;;;18.50;99.90;;;;;;5054454;28;20467;-83
2023/09/03 04:06:27;;;;;;;11.03;10.03;;;18.50;99.90;;;;;;5054805;28;20533;-84
2023/09/03 04:08:54;;;;;;;10.53;9.53;;;18.50;99.90;;;;;;5054329;28;20513;-88
2023/09/03 04:12:10;;;;;;;11.37;10.17;;;18.50;99.90;;;;;;5054956;28;20538;-88
2023/09/03 04:14:41;;;;;;;9.80;8.93;;;18.40;99.90;;;;;;5049526;28;20467;-83
2023/09/03 04:17:08;;;;;;;9.07;8.37;;;18.40;99.90;;;;;;5054043;28;20467;-84
2023/09/03 04:19:35;;;;;;;9.73;8.73;;;18.40;99.90;;;;;;5053350;28;20456;-85
2023/09/03 04:22:02;;;;;;;9.47;8.57;;;18.40;99.90;;;;;;5053887;28;20467;-83
2023/09/03 04:24:31;;;;;;;10.30;9.33;;;18.30;99.90;;;;;;5042343;28;20475;-88
2023/09/03 04:26:58;;;;;;;8.33;7.63;;;18.40;99.90;;;;;;5054501;28;20463;-90
2023/09/03 04:29:26;;;;;;;8.83;8.07;;;18.40;99.90;;;;;;5052246;28;20533;-83
2023/09/03 04:31:54;;;;;;;8.70;7.90;;;18.30;99.90;;;;;;5053745;28;20953;-88
2023/09/03 04:34:21;;;;;;;7.60;6.87;;;18.30;99.90;;;;;;5052995;28;20548;-85
2023/09/03 04:36:48;;;;;;;9.63;8.70;;;18.20;99.90;;;;;;5053956;28;20528;-87
2023/09/03 04:39:16;;;;;;;7.77;7.17;;;18.20;99.90;;;;;;5054386;28;20478;-88
2023/09/03 04:41:42;;;;;;;8.27;7.63;;;18.30;99.90;;;;;;5054246;28;20455;-83
2023/09/03 04:44:12;;;;;;;8.40;7.60;;;18.20;99.90;;;;;;5053398;28;20555;-84
2023/09/03 04:46:48;;;;;;;8.70;8.00;;;18.20;99.90;;;;;;5053369;28;20472;-88
2023/09/03 04:49:16;;;;;;;8.00;7.30;;;18.20;99.90;;;;;;5054021;28;20497;-84
2023/09/03 04:51:43;;;;;;;7.43;6.73;;;18.20;99.90;;;;;;5052733;28;20471;-84
2023/09/03 04:54:11;;;;;;;6.87;6.27;;;18.20;99.90;;;;;;5054423;28;21021;-88
2023/09/03 04:56:38;;;;;;;8.50;7.83;;;18.20;99.90;;;;;;5052878;28;20532;-83
2023/09/03 04:59:05;;;;;;;8.43;7.60;;;18.20;99.90;;;;;;5056234;28;20475;-87
2023/09/03 05:01:37;;;;;;;8.43;6.77;;;18.20;99.90;;;;;;5056676;28;20475;-88
2023/09/03 05:04:05;;;;;;;7.77;7.07;;;18.10;99.90;;;;;;5057570;28;20546;-89
2023/09/03 05:06:40;;;;;;;7.60;7.00;;;18.10;99.90;;;;;;5057082;28;20546;-89
2023/09/03 05:09:08;;;;;;;8.13;7.43;;;18.10;99.90;;;;;;5056959;28;20490;-85
2023/09/03 05:11:36;;;;;;;7.67;6.40;;;18.00;99.90;;;;;;5056117;28;20478;-85
2023/09/03 05:14:05;;;;;;;7.17;6.47;;;18.10;99.90;;;;;;5057454;28;20969;-85
2023/09/03 05:16:32;;;;;;;8.50;6.33;;;18.10;99.90;;;;;;5056392;28;20463;-84
2023/09/03 05:19:04;;;;;;;8.80;8.07;;;18.00;99.90;;;;;;5057264;28;20944;-89
2023/09/03 05:21:34;;;;;;;6.77;6.27;;;18.10;99.90;;;;;;5056637;28;20467;-88
2023/09/03 05:24:02;;;;;;;6.80;6.10;;;18.10;99.90;;;;;;5057077;28;20499;-89
2023/09/03 05:26:29;;;;;;;7.57;6.90;;;18.00;99.90;;;;;;5057125;28;20475;-85
2023/09/03 05:28:59;;;;;;;7.80;7.10;;;18.10;99.90;;;;;;5047622;28;20530;-85
2023/09/03 05:31:30;;;;;;;7.13;6.53;;;18.10;99.90;;;;;;5056983;28;20566;-89
2023/09/03 05:33:57;;;;;;;16.43;7.70;;;18.10;99.90;;;;;;5055770;28;20770;-89
2023/09/03 05:36:26;;;;;;;7.00;6.30;;;18.10;99.90;;;;;;5046445;28;20479;-85
2023/09/03 05:39:26;;;;;;;7.00;6.47;;;18.10;99.90;;;;;;5054385;28;20502;-84
2023/09/03 05:41:53;;;;;;;5.90;5.50;;;18.00;99.90;;;;;;5047173;28;20541;-88
2023/09/03 05:44:50;;;;;;;6.57;5.97;;;18.10;99.90;;;;;;5056380;28;20532;-84
2023/09/03 05:47:18;;;;;;;7.20;6.60;;;18.10;99.90;;;;;;5055480;28;20486;-88
2023/09/03 05:49:46;;;;;;;6.60;6.10;;;18.10;99.90;;;;;;5055540;28;20455;-83
2023/09/03 05:52:13;;;;;;;6.93;6.33;;;18.20;99.90;;;;;;5056155;28;20470;-83
2023/09/03 05:54:48;;;;;;;6.03;5.53;;;18.10;99.90;;;;;;5055929;28;20852;-88
2023/09/03 05:57:16;;;;;;;6.50;5.77;;;18.10;99.90;;;;;;5057079;28;20558;-84
2023/09/03 05:59:51;;;;;;;5.10;4.70;;;18.10;99.90;;;;;;5034889;28;20475;-83
2023/09/03 06:02:19;;;;;;;7.20;5.93;;;18.20;99.90;;;;;;5055919;28;20471;-84
2023/09/03 06:04:45;;;;;;;5.17;4.77;;;18.20;99.90;;;;;;5045713;28;20907;-84
2023/09/03 06:07:15;;;;;;;7.00;5.80;;;18.30;99.90;;;;;;5056086;28;20474;-85
2023/09/03 06:09:42;;;;;;;5.87;5.27;;;18.30;99.90;;;;;;5056115;28;20950;-88
2023/09/03 06:12:12;;;;;;;5.73;5.23;;;18.20;99.90;;;;;;5045042;28;20575;-88
2023/09/03 06:14:41;;;;;;;5.30;4.80;;;18.30;99.90;;;;;;5056740;28;20494;-84
2023/09/03 06:17:09;;;;;;;4.83;4.40;;;18.30;99.90;;;;;;5056128;28;20471;-88
2023/09/03 06:19:48;;;;;;;4.97;4.10;;;18.30;99.90;;;;;;5056128;28;20474;-88
2023/09/03 06:25:06;;;;;;;4.73;4.43;;;18.30;99.90;;;;;;5042366;28;20471;-83
2023/09/03 06:27:47;;;;;;;5.40;4.90;;;18.40;99.90;;;;;;5045223;28;20467;-87
2023/09/03 06:30:17;;;;;;;7.37;5.30;;;18.40;99.90;;;;;;5044631;28;20958;-85
2023/09/03 06:32:46;;;;;;;5.33;4.83;;;18.40;99.90;;;;;;5044510;28;20459;-83
2023/09/03 06:35:17;;;;;;;5.80;5.13;;;18.50;99.90;;;;;;5046195;28;20486;-84
2023/09/03 06:37:47;;;;;;;6.33;5.37;;;18.50;99.90;;;;;;5046061;28;21023;-87
2023/09/03 06:40:15;;;;;;;10.03;5.70;;;18.50;99.90;;;;;;5056459;28;20463;-84
2023/09/03 06:42:44;;;;;;;10.37;5.60;;;18.50;99.90;;;;;;5055940;28;20463;-88
2023/09/03 06:45:11;;;;;;;6.93;6.23;;;18.50;99.90;;;;;;5055665;28;20485;-84
2023/09/03 06:47:39;;;;;;;5.40;4.43;;;18.60;99.90;;;;;;5055697;28;20800;-85
2023/09/03 06:50:13;;;;;;;5.43;4.97;;;18.60;99.90;;;;;;5045424;28;20486;-83
2023/09/03 06:52:42;;;;;;;6.20;5.43;;;18.60;99.90;;;;;;5055023;28;20475;-83
2023/09/03 06:55:18;;;;;;;8.30;4.93;;;18.70;99.90;;;;;;5055625;28;20459;-88
2023/09/03 06:57:49;;;;;;;4.80;4.40;;;18.70;99.90;;;;;;5045271;28;20785;-84
2023/09/03 07:00:26;;;;;;;6.40;4.60;;;18.80;99.90;;;;;;5055442;28;20447;-87
2023/09/03 07:05:35;;;;;;;6.00;4.30;;;18.90;99.90;;;;;;5053737;28;20475;-88
2023/09/03 07:08:02;;;;;;;4.97;4.00;;;18.90;99.90;;;;;;5045880;28;20820;-84
2023/09/03 07:10:37;;;;;;;4.07;3.67;;;19.00;99.90;;;;;;5049520;28;20470;-88
2023/09/03 07:13:07;;;;;;;4.33;3.90;;;19.00;99.90;;;;;;5047338;28;20483;-87
2023/09/03 07:15:49;;;;;;;3.33;3.07;;;19.10;99.90;;;;;;5055077;28;20464;-84
2023/09/03 07:18:19;;;;;;;3.87;3.50;;;19.10;99.90;;;;;;5054975;28;20791;-84
2023/09/03 07:20:46;;;;;;;4.80;4.40;;;19.30;99.90;;;;;;5054813;28;20475;-87
2023/09/03 07:23:13;;;;;;;4.70;3.93;;;19.30;99.90;;;;;;5054626;28;20971;-84
2023/09/03 07:25:42;;;;;;;6.63;4.53;;;19.40;99.90;;;;;;5053580;28;20475;-84
2023/09/03 07:28:18;;;;;;;8.27;4.63;;;19.50;99.90;;;;;;5043108;28;20509;-85
2023/09/03 07:30:47;;;;;;;5.83;4.40;;;19.50;99.90;;;;;;5055601;28;20481;-83
2023/09/03 07:33:23;;;;;;;4.87;4.30;;;19.50;99.90;;;;;;5044868;28;20475;-88
2023/09/03 07:35:59;;;;;;;5.70;5.07;;;19.50;99.90;;;;;;5058303;28;20471;-88
2023/09/03 07:39:05;;;;;;;5.20;4.30;;;19.50;99.90;;;;;;5030694;28;20482;-84
2023/09/03 07:41:34;;;;;;;9.13;4.63;;;19.60;99.90;;;;;;5056790;28;20470;-83
2023/09/03 07:44:08;;;;;;;6.10;4.43;;;19.60;99.90;;;;;;5057162;28;20486;-83
2023/09/03 07:47:15;;;;;;;6.23;5.63;;;19.60;99.90;;;;;;5034811;28;20461;-84
2023/09/03 07:49:50;;;;;;;4.30;3.90;;;19.70;99.90;;;;;;5052498;28;20455;-84
2023/09/03 07:52:17;;;;;;;6.80;4.30;;;19.70;99.90;;;;;;5044055;28;20463;-87
2023/09/03 07:54:47;;;;;;;5.50;4.10;;;19.80;99.90;;;;;;5056004;28;20478;-87
2023/09/03 07:57:38;;;;;;;5.23;4.20;;;19.90;99.90;;;;;;5047303;28;20467;-84
2023/09/03 08:00:29;;;;;;;5.90;4.50;;;20.00;99.90;;;;;;5054370;28;20529;-84
2023/09/03 08:02:58;;;;;;;4.93;4.27;;;20.00;99.90;;;;;;5055428;28;20538;-85
2023/09/03 08:05:29;;;;;;;3.73;3.10;;;20.10;99.90;;;;;;5056471;28;20859;-83
2023/09/03 08:08:01;;;;;;;3.83;3.53;;;20.20;99.90;;;;;;5035180;28;20483;-89
2023/09/03 08:10:31;;;;;;;3.30;2.93;;;20.20;99.90;;;;;;5056815;28;20872;-89
2023/09/03 08:13:01;;;;;;;5.30;3.23;;;20.30;99.90;;;;;;5055318;28;20486;-88
2023/09/03 08:15:28;;;;;;;5.40;4.90;;;20.40;99.90;;;;;;5054072;28;20475;-85
2023/09/03 08:17:55;;;;;;;5.30;4.80;;;20.40;99.90;;;;;;5053825;28;20478;-85
2023/09/03 08:20:38;;;;;;;5.13;4.43;;;20.40;99.90;;;;;;5041858;28;20479;-85
2023/09/03 08:23:06;;;;;;;3.63;3.43;;;20.50;99.90;;;;;;5052215;28;20481;-88
2023/09/03 08:25:44;;;;;;;4.43;3.63;;;20.50;99.90;;;;;;5053762;28;20479;-85
2023/09/03 08:28:13;;;;;;;6.43;3.80;;;20.60;99.90;;;;;;5053114;28;20471;-88
2023/09/03 08:30:44;;;;;;;6.47;5.87;;;20.60;99.90;;;;;;5037676;28;20524;-84
2023/09/03 08:33:37;;;;;;;6.33;5.10;;;20.60;99.90;;;;;;5053072;28;20478;-86
2023/09/03 08:36:13;;;;;;;6.37;5.70;;;20.70;99.90;;;;;;5043318;28;20536;-83
2023/09/03 08:38:43;;;;;;;5.10;4.70;;;20.70;99.90;;;;;;5053140;28;20474;-88
2023/09/03 08:41:10;;;;;;;4.73;4.30;;;20.80;99.90;;;;;;5053293;28;20554;-88
2023/09/03 08:43:41;;;;;;;3.83;3.53;;;20.80;99.90;;;;;;5054109;28;20475;-85
2023/09/03 08:46:11;;;;;;;3.57;3.27;;;20.90;99.90;;;;;;5057451;28;20510;-86
2023/09/03 08:48:41;;;;;;;4.00;2.93;;;20.90;99.90;;;;;;5056612;28;20471;-89
2023/09/03 08:51:23;;;;;;;2.80;2.60;;;21.00;99.90;;;;;;5019127;28;20512;-85
2023/09/03 08:53:56;;;;;;;1.97;1.87;;;21.10;99.90;;;;;;5042744;28;20478;-86
2023/09/03 08:56:28;;;;;;;2.50;2.30;;;21.10;99.90;;;;;;5052132;28;20476;-84
2023/09/03 08:59:02;;;;;;;5.00;3.17;;;21.10;99.90;;;;;;5043015;28;20481;-85
2023/09/03 09:01:35;;;;;;;3.20;3.00;;;21.20;99.90;;;;;;5051719;28;20495;-85
2023/09/03 09:04:18;;;;;;;3.10;2.30;;;21.20;99.90;;;;;;5035530;28;20475;-88
2023/09/03 09:07:00;;;;;;;2.10;1.90;;;21.30;99.90;;;;;;5043872;28;20529;-88
2023/09/03 09:09:30;;;;;;;2.83;2.00;;;21.30;99.90;;;;;;5042479;28;20557;-86
2023/09/03 09:12:03;;;;;;;2.50;1.87;;;21.40;99.90;;;;;;5053379;28;20524;-86
2023/09/03 09:14:51;;;;;;;4.23;3.10;;;21.40;99.90;;;;;;5054392;28;20510;-83
2023/09/03 09:17:28;;;;;;;3.37;2.13;;;21.40;99.90;;;;;;5052767;28;20463;-87
2023/09/03 09:19:58;;;;;;;3.23;2.30;;;21.40;99.90;;;;;;5053600;28;20952;-84
2023/09/03 09:22:29;;;;;;;3.87;2.13;;;21.50;99.90;;;;;;5042669;28;20969;-87
2023/09/03 09:25:10;;;;;;;2.67;1.90;;;21.50;99.90;;;;;;5044205;28;20479;-86
2023/09/03 09:27:50;;;;;;;;;;;;;;;;;;;;;
2023/09/03 09:30:24;;;;;;;2.33;2.00;;;21.40;99.90;;;;;;5052487;28;20460;-85
2023/09/03 09:33:19;;;;;;;1.70;1.40;;;21.40;99.90;;;;;;5051785;28;20922;-84
2023/09/03 09:35:57;;;;;;;2.23;1.70;;;21.50;99.90;;;;;;5052322;28;20538;-88
2023/09/03 09:38:49;;;;;;;2.87;2.20;;;21.50;99.90;;;;;;5041436;28;20485;-85
2023/09/03 09:41:23;;;;;;;4.67;2.10;;;21.40;99.90;;;;;;5033908;28;20682;-86
2023/09/03 09:43:57;;;;;;;3.50;2.20;;;21.40;99.90;;;;;;5042980;28;20462;-84
2023/09/03 09:46:58;;;;;;;2.13;1.53;;;21.50;99.90;;;;;;5044777;28;20466;-89
2023/09/03 09:49:25;;;;;;;3.33;2.13;;;21.40;99.90;;;;;;5055488;28;20594;-87
2023/09/03 09:54:41;;;;;;;2.13;1.90;;;21.50;99.90;;;;;;5037714;28;20462;-88
2023/09/03 09:57:14;;;;;;;2.50;2.00;;;21.50;99.90;;;;;;5048138;28;20505;-88
2023/09/03 09:59:42;;;;;;;2.13;1.80;;;21.50;99.90;;;;;;5056915;28;20467;-89
2023/09/03 10:02:23;;;;;;;7.33;2.07;;;21.60;99.90;;;;;;5045921;28;20478;-85
2023/09/03 10:04:57;;;;;;;2.43;2.03;;;21.60;99.90;;;;;;5055365;28;20483;-86
2023/09/03 10:08:18;;;;;;;2.50;1.97;;;21.70;99.90;;;;;;5056602;28;20536;-89
2023/09/03 10:10:48;;;;;;;2.47;2.00;;;21.70;99.90;;;;;;5046320;28;20625;-87
2023/09/03 10:16:34;;;;;;;2.13;1.93;;;21.80;99.90;;;;;;5040262;28;20834;-88
2023/09/03 10:19:13;;;;;;;2.47;2.23;;;21.80;99.90;;;;;;5055551;28;20520;-85
2023/09/03 10:25:04;;;;;;;2.73;2.03;;;21.80;99.90;;;;;;5052744;28;20550;-85
2023/09/03 10:27:38;;;;;;;2.27;2.07;;;21.80;99.90;;;;;;5046460;28;20864;-88
2023/09/03 10:30:14;;;;;;;2.27;1.80;;;21.90;99.90;;;;;;5056024;28;20471;-84
2023/09/03 10:32:46;;;;;;;3.77;1.87;;;21.90;99.90;;;;;;5044033;28;20459;-89
2023/09/03 10:39:34;;;;;;;2.67;2.40;;;21.90;99.90;;;;;;4991586;28;20461;-88
2023/09/03 10:43:11;;;;;;;4.43;2.83;;;21.90;99.90;;;;;;5029869;28;20815;-85
2023/09/03 10:45:41;;;;;;;4.10;3.20;;;21.90;99.90;;;;;;5004036;28;20547;-86
2023/09/03 10:48:45;;;;;;;3.00;2.77;;;21.90;99.90;;;;;;5034196;28;20968;-85
2023/09/03 10:51:32;;;;;;;5.37;4.03;;;21.80;99.90;;;;;;5019992;28;20471;-86
2023/09/03 10:54:16;;;;;;;2.90;2.40;;;21.90;99.90;;;;;;5034240;28;20474;-85
2023/09/03 10:57:18;;;;;;;2.47;2.27;;;21.90;99.90;;;;;;5027393;28;20472;-89
2023/09/03 11:00:21;;;;;;;4.97;2.57;;;21.90;99.90;;;;;;5034223;28;20498;-89
2023/09/03 11:03:09;;;;;;;2.20;2.00;;;22.00;99.90;;;;;;5041656;28;20881;-86
2023/09/03 11:06:22;;;;;;;2.20;2.00;;;22.00;99.90;;;;;;5033874;28;20527;-87
2023/09/03 11:09:13;;;;;;;2.53;2.10;;;22.00;99.90;;;;;;5034613;28;20918;-85
2023/09/03 11:11:40;;;;;;;3.70;3.40;;;22.10;99.90;;;;;;5033851;28;20487;-84
2023/09/03 11:14:37;;;;;;;5.00;4.60;;;22.10;99.90;;;;;;5029552;28;20495;-89
2023/09/03 11:20:31;;;;;;;3.30;3.00;;;22.30;99.90;;;;;;5000776;28;20460;-89
2023/09/03 11:22:59;;;;;;;2.50;2.30;;;22.40;99.90;;;;;;5023907;28;20455;-89
2023/09/03 11:25:34;;;;;;;4.50;2.63;;;22.40;99.90;;;;;;5033905;28;20530;-89
2023/09/03 11:28:04;;;;;;;2.03;1.90;;;22.50;99.90;;;;;;5033755;28;20468;-88
2023/09/03 11:31:17;;;;;;;2.50;1.93;;;22.60;99.90;;;;;;5033987;28;20468;-84
2023/09/03 11:33:51;;;;;;;2.90;2.10;;;22.60;99.90;;;;;;5016905;28;20490;-88
2023/09/03 11:36:24;;;;;;;2.63;2.10;;;22.70;99.90;;;;;;5038028;28;20539;-89
2023/09/03 11:39:19;;;;;;;2.10;1.87;;;22.70;99.90;;;;;;5020623;28;20966;-88
2023/09/03 11:41:56;;;;;;;2.00;1.80;;;22.70;99.90;;;;;;5023095;28;20715;-87
2023/09/03 11:44:30;;;;;;;2.60;1.97;;;22.70;99.90;;;;;;5025127;28;20490;-85
2023/09/03 11:46:59;;;;;;;2.50;2.27;;;22.70;99.90;;;;;;5033996;28;20492;-86
2023/09/03 11:52:59;;;;;;;1.83;1.63;;;22.70;99.90;;;;;;5043901;28;20530;-87
2023/09/03 11:58:48;;;;;;;2.23;1.87;;;22.70;99.90;;;;;;5046422;28;20478;-89
2023/09/03 12:01:23;;;;;;;3.73;2.20;;;22.70;99.90;;;;;;5042845;28;20561;-87
2023/09/03 12:07:44;;;;;;;3.70;3.30;;;22.70;99.90;;;;;;5050846;28;20538;-90
2023/09/03 12:10:31;;;;;;;2.50;2.07;;;22.80;99.90;;;;;;4966019;28;20498;-88
2023/09/03 12:13:37;;;;;;;3.23;1.83;;;22.70;99.90;;;;;;4985429;28;20495;-89
2023/09/03 12:16:25;;;;;;;3.97;2.23;;;22.70;99.90;;;;;;4972367;28;20471;-89
2023/09/03 12:19:04;;;;;;;3.63;1.90;;;22.80;99.90;;;;;;4963385;28;20611;-89
2023/09/03 12:21:40;;;;;;;2.37;1.90;;;22.80;99.90;;;;;;5013738;28;20482;-90
2023/09/03 12:24:26;;;;;;;2.73;2.40;;;22.80;99.90;;;;;;5006060;28;20480;-89
2023/09/03 12:27:36;;;;;;;3.27;2.97;;;22.90;99.90;;;;;;5021168;28;20472;-87
2023/09/03 12:31:00;;;;;;;;;;;;;;;;;;;;;
2023/09/03 13:21:17;;;;;;;3.83;3.37;;;23.00;99.90;;;;;;5564976;22;20452;-90
2023/09/03 13:26:50;;;;;;;4.90;4.50;;;22.90;99.90;;;;;;5522454;23;20469;-90
2023/09/03 13:29:27;;;;;;;5.90;5.40;;;22.90;99.90;;;;;;4988236;28;20493;-90
2023/09/03 13:32:05;;;;;;;4.87;4.37;;;23.00;99.90;;;;;;5022174;28;20469;-89
2023/09/03 13:34:49;;;;;;;9.50;8.60;;;23.00;99.90;;;;;;4996805;28;20465;-86
2023/09/03 13:37:22;;;;;;;10.47;9.47;;;23.00;99.90;;;;;;5002579;28;20473;-89
2023/09/03 13:40:19;;;;;;;12.30;11.10;;;23.00;99.90;;;;;;5006688;28;20958;-90
2023/09/03 13:43:44;;;;;;;;;;;;;;;;;;;;;
2023/09/03 13:49:38;;;;;;;9.00;7.80;;;23.10;99.90;;;;;;4910176;29;20544;-90
2023/09/03 13:52:21;;;;;;;9.77;8.77;;;23.10;99.90;;;;;;4959179;28;20851;-86
2023/09/03 13:54:57;;;;;;;10.63;8.70;;;23.10;99.90;;;;;;4989960;28;20550;-86
2023/09/03 13:57:59;;;;;;;11.07;8.10;;;23.10;99.90;;;;;;5005804;28;20479;-90
2023/09/03 14:03:49;;;;;;;7.70;7.00;;;23.10;99.90;;;;;;4933560;28;20780;-86
2023/09/03 14:06:37;;;;;;;8.43;7.13;;;23.20;99.90;;;;;;4980649;28;20496;-90
2023/09/03 14:09:18;;;;;;;4.50;4.10;;;23.20;99.90;;;;;;4987052;28;20478;-90
2023/09/03 14:11:53;;;;;;;11.23;7.67;;;23.20;99.90;;;;;;4997388;28;20481;-90
2023/09/03 14:18:00;;;;;;;4.27;3.93;;;23.20;99.90;;;;;;4966443;28;20501;-89
2023/09/03 14:20:50;;;;;;;5.20;4.50;;;23.10;99.90;;;;;;4977651;28;20478;-85
2023/09/03 14:23:19;;;;;;;3.70;3.00;;;23.10;99.90;;;;;;4998203;28;20478;-90
2023/09/03 14:26:15;;;;;;;3.70;2.90;;;23.20;99.90;;;;;;4986386;28;20489;-86
2023/09/03 14:28:54;;;;;;;4.27;3.87;;;23.20;99.90;;;;;;4995253;28;20866;-87
2023/09/03 14:32:14;;;;;;;6.63;3.90;;;23.20;99.90;;;;;;4998135;28;20469;-90
2023/09/03 14:37:57;;;;;;;5.80;4.47;;;23.10;99.90;;;;;;4987902;28;20867;-90
2023/09/03 14:40:27;;;;;;;9.00;6.93;;;23.10;99.90;;;;;;4978815;28;20515;-90
2023/09/03 14:43:27;;;;;;;6.47;5.80;;;23.00;99.90;;;;;;4983773;28;21001;-90
2023/09/03 14:46:09;;;;;;;5.47;4.67;;;23.00;99.90;;;;;;4988691;28;20483;-88
2023/09/03 14:48:36;;;;;;;4.83;4.33;;;23.00;99.90;;;;;;4979113;28;20489;-87
2023/09/03 14:51:26;;;;;;;4.97;4.53;;;23.00;99.90;;;;;;4987865;28;20488;-91
2023/09/03 14:53:55;;;;;;;6.87;6.20;;;23.00;99.90;;;;;;5001694;28;20543;-85
2023/09/03 14:56:32;;;;;;;6.80;5.97;;;23.00;99.90;;;;;;5004507;28;20544;-90
2023/09/03 14:59:08;;;;;;;5.83;5.20;;;23.00;99.90;;;;;;5020436;28;20496;-87
2023/09/03 15:02:01;;;;;;;3.77;3.47;;;22.90;99.90;;;;;;5004837;28;20535;-86
2023/09/03 15:08:11;;;;;;;3.50;2.50;;;22.90;99.90;;;;;;5012439;28;20938;-89
2023/09/03 15:10:39;;;;;;;4.10;3.53;;;22.90;99.90;;;;;;4997255;28;20989;-90
2023/09/03 15:16:46;;;;;;;3.67;3.37;;;22.90;99.80;;;;;;4997584;28;20552;-87